createdAt,value
2022-11-04T00:04:38.925Z,2.50
2022-11-04T00:10:01.984Z,1.80
2022-11-04T00:15:42.573Z,4.13
2022-11-04T00:21:24.507Z,1.80
2022-11-04T00:27:05.368Z,1.10
2022-11-04T00:32:45.825Z,1.93
2022-11-04T00:38:10.518Z,1.73
2022-11-04T00:43:33.683Z,5.37
2022-11-04T00:48:56.776Z,2.33
2022-11-04T00:54:21.232Z,1.47
2022-11-04T00:59:45.690Z,0.97
2022-11-04T01:05:09.678Z,5.20
2022-11-04T01:10:36.130Z,2.83
2022-11-04T01:15:59.630Z,2.67
2022-11-04T01:21:22.755Z,2.07
2022-11-04T01:26:47.311Z,4.73
2022-11-04T01:32:10.438Z,2.27
2022-11-04T01:37:33.559Z,3.00
2022-11-04T01:42:58.095Z,3.57
2022-11-04T01:48:23.857Z,2.13
2022-11-04T01:53:51.662Z,4.97
2022-11-04T01:59:19.652Z,4.43
2022-11-04T02:04:44.156Z,4.67
2022-11-04T02:10:10.252Z,3.73
2022-11-04T02:15:39.295Z,1.30
2022-11-04T02:21:31.788Z,3.33
2022-11-04T02:27:23.079Z,1.13
2022-11-04T02:33:01.417Z,0.57
2022-11-04T02:38:32.278Z,0.43
2022-11-04T02:44:03.653Z,2.40
2022-11-04T02:49:31.279Z,1.70
2022-11-04T02:54:59.622Z,0.30
2022-11-04T03:00:22.799Z,0.80
2022-11-04T03:05:49.577Z,0.40
2022-11-04T03:11:13.625Z,0.20
2022-11-04T03:16:39.229Z,0.57
2022-11-04T03:22:06.241Z,1.67
2022-11-04T03:27:34.642Z,1.90
2022-11-04T03:33:00.864Z,0.47
2022-11-04T03:38:25.593Z,0.33
2022-11-04T03:43:48.689Z,1.63
2022-11-04T03:49:13.143Z,1.03
2022-11-04T03:54:37.609Z,0.70
2022-11-04T04:00:12.965Z,1.73
2022-11-04T04:05:40.621Z,2.13
2022-11-04T04:11:09.651Z,2.10
2022-11-04T04:16:36.021Z,5.07
2022-11-04T04:22:03.483Z,3.07
2022-11-04T04:27:33.631Z,4.17
2022-11-04T04:32:59.336Z,1.03
2022-11-04T04:38:41.466Z,3.83
2022-11-04T04:44:23.916Z,2.57
2022-11-04T04:49:53.818Z,1.10
2022-11-04T04:55:17.404Z,2.67
2022-11-04T05:00:41.822Z,1.23
2022-11-04T05:06:05.200Z,1.97
2022-11-04T05:11:28.254Z,1.33
2022-11-04T05:16:52.696Z,4.23
2022-11-04T05:22:15.772Z,5.13
2022-11-04T05:27:38.954Z,2.67
2022-11-04T05:33:05.109Z,2.57
2022-11-04T05:38:28.534Z,1.00
2022-11-04T05:43:52.752Z,2.73
2022-11-04T05:49:17.304Z,1.23
2022-11-04T05:54:40.408Z,2.70
2022-11-04T06:00:04.006Z,3.33
2022-11-04T06:05:29.399Z,2.77
2022-11-04T06:10:52.437Z,4.00
2022-11-04T06:16:15.547Z,3.63
2022-11-04T06:21:40.052Z,7.37
2022-11-04T06:27:05.131Z,4.33
2022-11-04T06:32:28.370Z,4.33
2022-11-04T06:37:52.815Z,4.80
2022-11-04T06:43:15.989Z,3.90
2022-11-04T06:48:39.103Z,4.03
2022-11-04T06:54:03.726Z,4.60
2022-11-04T06:59:26.851Z,7.10
2022-11-04T07:04:51.880Z,5.83
2022-11-04T07:10:17.128Z,11.67
2022-11-04T07:15:40.662Z,13.83
2022-11-04T07:21:08.783Z,14.50
2022-11-04T07:26:34.609Z,14.80
2022-11-04T07:31:57.758Z,15.47
2022-11-04T07:37:20.909Z,13.43
2022-11-04T07:42:45.376Z,15.40
2022-11-04T07:48:16.081Z,15.77
2022-11-04T07:53:39.231Z,19.83
2022-11-04T07:59:06.825Z,16.03
2022-11-04T08:04:30.018Z,10.80
2022-11-04T08:09:53.165Z,9.80
2022-11-04T08:15:17.888Z,19.63
2022-11-04T08:20:41.140Z,11.43
2022-11-04T08:26:08.590Z,13.10
2022-11-04T08:31:33.738Z,14.90
2022-11-04T08:36:57.550Z,19.67
2022-11-04T08:42:20.724Z,18.50
2022-11-04T08:47:47.768Z,20.40
2022-11-04T08:53:11.315Z,19.90
2022-11-04T08:58:34.540Z,25.57
2022-11-04T09:03:59.116Z,22.07
2022-11-04T09:09:22.314Z,26.97
2022-11-04T09:14:45.366Z,18.77
2022-11-04T09:20:12.678Z,19.10
2022-11-04T09:25:36.215Z,19.13
2022-11-04T09:30:59.630Z,14.93
2022-11-04T09:36:26.839Z,21.23
2022-11-04T09:41:57.702Z,21.60
2022-11-04T09:47:26.636Z,21.10
2022-11-04T09:52:56.823Z,17.67
2022-11-04T09:58:25.183Z,17.90
2022-11-04T10:03:57.417Z,19.10
2022-11-04T10:09:31.372Z,16.23
2022-11-04T10:15:10.520Z,16.50
2022-11-04T10:20:44.073Z,9.93
2022-11-04T10:26:17.257Z,13.13
2022-11-04T10:31:43.866Z,16.97
2022-11-04T10:37:10.635Z,21.37
2022-11-04T10:42:38.214Z,18.33
2022-11-04T10:48:05.115Z,21.07
2022-11-04T10:53:29.883Z,18.77
2022-11-04T10:58:55.263Z,12.50
2022-11-04T11:04:27.268Z,11.33
2022-11-04T11:09:54.373Z,19.10
2022-11-04T11:15:30.106Z,13.67
2022-11-04T11:21:07.763Z,16.97
2022-11-04T11:26:34.290Z,18.80
2022-11-04T11:32:00.724Z,8.17
2022-11-04T11:37:25.774Z,7.27
2022-11-04T11:42:49.133Z,3.43
2022-11-04T11:48:31.953Z,8.70
2022-11-04T11:54:18.263Z,4.97
2022-11-04T12:06:17.923Z,10.77
2022-11-04T12:11:50.774Z,3.93
2022-11-04T12:17:25.210Z,2.90
2022-11-04T12:22:56.312Z,7.37
2022-11-04T12:28:25.637Z,2.47
2022-11-04T12:33:55.677Z,4.67
2022-11-04T12:39:34.459Z,2.23
2022-11-04T12:45:08.533Z,5.80
2022-11-04T12:50:42.546Z,4.37
2022-11-04T12:56:12.836Z,11.03
2022-11-04T13:01:39.114Z,6.27
2022-11-04T13:07:04.419Z,3.40
2022-11-04T13:12:32.115Z,2.60
2022-11-04T13:17:59.962Z,1.83
2022-11-04T13:23:47.180Z,4.13
2022-11-04T13:29:21.328Z,5.83
2022-11-04T13:34:51.978Z,6.07
2022-11-04T13:40:17.417Z,3.03
2022-11-04T13:45:48.730Z,4.63
2022-11-04T13:51:13.188Z,4.73
2022-11-04T13:56:37.918Z,7.27
2022-11-04T14:02:33.900Z,2.97
2022-11-04T14:08:11.912Z,2.90
2022-11-04T14:13:52.369Z,7.10
2022-11-04T14:19:58.136Z,4.40
2022-11-04T14:25:33.898Z,2.13
2022-11-04T14:31:00.450Z,9.03
2022-11-04T14:36:32.775Z,2.67
2022-11-04T14:41:59.913Z,2.97
2022-11-04T14:47:26.292Z,5.20
2022-11-04T14:52:54.632Z,4.67
2022-11-04T14:58:28.033Z,5.30
2022-11-04T15:04:11.665Z,2.17
2022-11-04T15:09:39.620Z,2.60
2022-11-04T15:15:27.910Z,4.73
2022-11-04T15:20:53.842Z,4.83
2022-11-04T15:26:28.094Z,6.30
2022-11-04T15:31:57.946Z,6.23
2022-11-04T15:37:24.676Z,9.43
2022-11-04T15:42:47.955Z,4.83
2022-11-04T15:48:30.107Z,4.03
2022-11-04T15:53:55.470Z,8.17
2022-11-04T15:59:24.009Z,4.63
2022-11-04T16:05:03.133Z,10.70
2022-11-04T16:10:30.168Z,6.60
2022-11-04T16:16:09.045Z,3.07
2022-11-04T16:21:36.464Z,5.33
2022-11-04T16:26:59.737Z,3.77
2022-11-04T16:32:27.834Z,10.60
2022-11-04T16:37:52.533Z,14.20
2022-11-04T16:43:18.880Z,11.20
2022-11-04T16:48:42.079Z,7.47
2022-11-04T16:54:06.574Z,10.07
2022-11-04T16:59:32.458Z,2.50
2022-11-04T17:04:56.064Z,4.87
2022-11-04T17:10:26.095Z,6.53
2022-11-04T17:15:49.342Z,8.23
2022-11-04T17:21:16.942Z,3.03
2022-11-04T17:26:41.539Z,4.27
2022-11-04T17:32:04.801Z,5.30
2022-11-04T17:37:27.973Z,6.40
2022-11-04T17:43:12.201Z,6.97
2022-11-04T17:48:35.831Z,5.50
2022-11-04T17:53:58.952Z,8.90
2022-11-04T17:59:23.631Z,14.30
2022-11-04T18:04:47.038Z,12.83
2022-11-04T18:10:11.394Z,7.03
2022-11-04T18:15:35.927Z,7.73
2022-11-04T18:21:03.441Z,13.43
2022-11-04T18:26:26.759Z,6.73
2022-11-04T18:31:51.366Z,13.93
2022-11-04T18:37:14.539Z,8.43
2022-11-04T18:42:37.633Z,11.17
2022-11-04T18:48:02.046Z,7.97
2022-11-04T18:53:27.098Z,6.90
2022-11-04T18:58:50.789Z,6.30
2022-11-04T19:04:15.392Z,5.90
2022-11-04T19:09:46.657Z,5.90
2022-11-04T19:15:11.350Z,2.80
2022-11-04T19:20:36.268Z,6.10
2022-11-04T19:26:02.236Z,4.47
2022-11-04T19:31:27.441Z,7.97
2022-11-04T19:36:52.206Z,5.47
2022-11-04T19:42:34.469Z,8.40
2022-11-04T19:47:57.753Z,9.60
2022-11-04T19:53:22.304Z,7.00
2022-11-04T19:58:45.964Z,21.40
2022-11-04T20:04:09.242Z,17.73
2022-11-04T20:09:34.058Z,20.80
2022-11-04T20:14:57.420Z,6.50
2022-11-04T20:20:20.513Z,6.23
2022-11-04T20:25:45.325Z,10.00
2022-11-04T20:31:14.500Z,8.63
2022-11-04T20:36:38.659Z,11.57
2022-11-04T20:42:03.323Z,7.77
2022-11-04T20:47:26.508Z,7.43
2022-11-04T20:52:49.619Z,6.73
2022-11-04T20:58:14.089Z,4.93
2022-11-04T21:03:37.396Z,4.93
2022-11-04T21:09:00.846Z,9.70
2022-11-04T21:14:25.197Z,6.83
2022-11-04T21:19:48.308Z,14.57
2022-11-04T21:25:11.545Z,7.17
2022-11-04T21:31:03.751Z,5.70
2022-11-04T21:36:27.042Z,3.00
2022-11-04T21:41:50.175Z,3.53
2022-11-04T21:47:15.096Z,3.70
2022-11-04T21:52:38.187Z,4.50
2022-11-04T21:58:01.329Z,5.47
2022-11-04T22:03:26.806Z,5.73
2022-11-04T22:08:53.881Z,4.67
2022-11-04T22:14:17.075Z,4.83
2022-11-04T22:19:41.527Z,2.73
2022-11-04T22:25:06.640Z,4.03
2022-11-04T22:30:29.751Z,1.13
2022-11-04T22:35:54.160Z,3.37
2022-11-04T22:41:18.902Z,8.77
2022-11-04T22:46:44.573Z,2.73
2022-11-04T22:52:09.443Z,4.87
2022-11-04T22:57:32.556Z,5.77
2022-11-04T23:02:55.884Z,4.73
2022-11-04T23:08:20.591Z,2.80
2022-11-04T23:14:07.545Z,3.90
2022-11-04T23:19:31.041Z,6.00
2022-11-04T23:25:10.164Z,3.47
2022-11-04T23:30:34.865Z,5.03
2022-11-04T23:36:14.753Z,3.60
2022-11-04T23:41:56.753Z,6.03
2022-11-04T23:47:37.361Z,5.70
2022-11-04T23:53:18.334Z,5.57
2022-11-04T23:59:00.196Z,4.70
